createdAt,value
2019-06-26T00:12:27.474Z,7.97
2019-06-26T00:14:59.084Z,7.17
2019-06-26T00:17:39.344Z,6.83
2019-06-26T00:20:12.309Z,5.83
2019-06-26T00:22:53.843Z,6.80
2019-06-26T00:25:57.940Z,6.77
2019-06-26T00:28:41.470Z,6.30
2019-06-26T00:31:11.748Z,6.40
2019-06-26T00:34:12.951Z,6.80
2019-06-26T00:36:51.143Z,6.53
2019-06-26T00:39:34.739Z,6.47
2019-06-26T00:45:49.866Z,6.70
2019-06-26T00:48:57.364Z,6.80
2019-06-26T01:07:48.224Z,7.37
2019-06-26T01:10:55.269Z,7.00
2019-06-26T01:17:35.715Z,7.00
2019-06-26T02:08:10.723Z,7.40
2019-06-26T02:10:43.392Z,7.53
2019-06-26T02:13:13.041Z,7.33
2019-06-26T02:15:42.390Z,7.67
2019-06-26T02:18:30.914Z,7.80
2019-06-26T02:21:00.983Z,8.00
2019-06-26T02:35:38.232Z,8.47
2019-06-26T02:38:07.899Z,8.03
2019-06-26T02:40:37.496Z,8.30
2019-06-26T02:43:14.502Z,8.33
2019-06-26T03:00:22.607Z,8.87
2019-06-26T03:04:16.018Z,8.50
2019-06-26T03:08:06.162Z,8.50
2019-06-26T03:10:38.600Z,9.23
2019-06-26T03:13:32.579Z,8.93
2019-06-26T03:16:13.031Z,8.90
2019-06-26T03:19:06.693Z,9.33
2019-06-26T03:22:39.448Z,9.37
2019-06-26T03:42:02.521Z,10.47
2019-06-26T03:44:36.593Z,9.90
2019-06-26T03:47:14.620Z,9.67
2019-06-26T03:49:56.806Z,9.63
2019-06-26T03:52:38.557Z,10.30
2019-06-26T03:55:21.532Z,9.83
2019-06-26T04:23:37.584Z,11.70
2019-06-26T04:41:25.731Z,11.33
2019-06-26T04:43:55.150Z,12.20
2019-06-26T04:46:24.599Z,11.87
2019-06-26T04:48:55.402Z,11.77
2019-06-26T04:51:24.823Z,11.43
2019-06-26T04:53:57.329Z,12.83
2019-06-26T04:56:31.722Z,13.57
2019-06-26T04:59:20.081Z,11.87
2019-06-26T05:01:54.217Z,11.90
2019-06-26T05:04:36.249Z,12.83
2019-06-26T05:07:48.490Z,11.97
2019-06-26T05:17:15.747Z,12.60
2019-06-26T05:19:45.575Z,17.57
2019-06-26T05:22:15.050Z,13.00
2019-06-26T05:24:49.573Z,14.53
2019-06-26T05:27:18.590Z,12.53
2019-06-26T05:29:54.439Z,13.20
2019-06-26T05:32:32.484Z,13.53
2019-06-26T05:35:02.243Z,13.10
2019-06-26T05:37:32.037Z,13.73
2019-06-26T05:40:01.706Z,13.97
2019-06-26T05:42:31.109Z,13.70
2019-06-26T05:45:00.249Z,12.73
2019-06-26T05:47:29.497Z,13.67
2019-06-26T05:49:59.014Z,14.30
2019-06-26T05:56:01.235Z,13.27
2019-06-26T05:58:30.515Z,13.20
2019-06-26T06:00:59.604Z,13.60
2019-06-26T06:03:29.053Z,13.70
2019-06-26T06:05:58.370Z,13.23
2019-06-26T06:08:27.501Z,13.70
2019-06-26T06:10:58.304Z,13.60
2019-06-26T06:13:27.962Z,16.80
2019-06-26T06:15:57.176Z,12.90
2019-06-26T06:18:26.377Z,12.77
2019-06-26T06:20:55.740Z,11.77
2019-06-26T06:23:24.917Z,13.17
2019-06-26T06:25:54.165Z,12.53
2019-06-26T06:28:23.695Z,12.37
2019-06-26T06:30:53.338Z,13.17
2019-06-26T06:33:22.561Z,12.40
2019-06-26T06:35:51.818Z,12.20
2019-06-26T06:38:20.782Z,12.03
2019-06-26T06:40:50.230Z,11.67
2019-06-26T06:43:22.431Z,13.20
2019-06-26T06:45:51.459Z,12.60
2019-06-26T06:48:20.623Z,12.43
2019-06-26T06:50:50.097Z,11.80
2019-06-26T06:53:19.281Z,11.80
2019-06-26T06:55:48.440Z,12.57
2019-06-26T06:58:17.770Z,11.87
2019-06-26T07:00:46.900Z,11.53
2019-06-26T07:03:16.442Z,11.63
2019-06-26T07:05:45.638Z,12.50
2019-06-26T07:08:14.887Z,12.83
2019-06-26T07:10:44.250Z,12.77
2019-06-26T07:13:15.467Z,11.90
2019-06-26T07:15:44.905Z,12.07
2019-06-26T07:18:14.095Z,10.87
2019-06-26T07:20:44.723Z,11.23
2019-06-26T07:23:19.556Z,10.57
2019-06-26T07:25:48.823Z,10.53
2019-06-26T07:28:18.129Z,11.47
2019-06-26T07:30:47.490Z,11.23
2019-06-26T07:33:22.770Z,10.37
2019-06-26T07:35:57.885Z,10.07
2019-06-26T07:38:27.105Z,10.10
2019-06-26T07:40:56.099Z,9.60
2019-06-26T07:43:25.688Z,9.57
2019-06-26T07:45:55.923Z,9.23
2019-06-26T07:48:25.081Z,8.60
2019-06-26T07:50:54.441Z,8.90
2019-06-26T07:53:23.938Z,9.17
2019-06-26T07:55:53.400Z,9.00
2019-06-26T07:58:22.452Z,8.83
2019-06-26T08:00:51.558Z,9.33
2019-06-26T08:03:20.760Z,8.90
2019-06-26T08:05:50.030Z,8.57
2019-06-26T08:08:19.243Z,8.77
2019-06-26T08:10:49.678Z,7.90
2019-06-26T08:13:18.761Z,8.40
2019-06-26T08:15:48.164Z,8.53
2019-06-26T08:18:18.517Z,8.97
2019-06-26T08:21:07.250Z,8.50
2019-06-26T08:23:18.736Z,7.70
2019-06-26T08:25:48.120Z,7.63
2019-06-26T08:28:17.429Z,7.20
2019-06-26T08:30:46.774Z,7.97
2019-06-26T08:33:15.924Z,7.73
2019-06-26T08:35:45.180Z,7.67
2019-06-26T08:38:15.846Z,7.43
2019-06-26T08:40:45.029Z,7.03
2019-06-26T08:43:14.326Z,6.63
2019-06-26T08:45:43.384Z,6.67
2019-06-26T08:48:19.308Z,6.33
2019-06-26T08:50:43.335Z,6.87
2019-06-26T08:53:12.466Z,7.30
2019-06-26T08:55:41.480Z,6.70
2019-06-26T08:58:10.666Z,7.33
2019-06-26T09:00:39.735Z,7.27
2019-06-26T09:03:08.919Z,6.80
2019-06-26T09:05:48.131Z,6.37
2019-06-26T09:08:09.138Z,6.90
2019-06-26T09:10:38.426Z,6.60
2019-06-26T09:13:08.346Z,6.30
2019-06-26T09:15:37.515Z,5.83
2019-06-26T09:18:06.618Z,6.23
2019-06-26T09:20:39.491Z,5.80
2019-06-26T09:23:09.185Z,6.03
2019-06-26T09:25:38.699Z,6.40
2019-06-26T09:28:07.879Z,6.47
2019-06-26T09:30:37.051Z,5.93
2019-06-26T09:33:06.149Z,6.13
2019-06-26T09:35:35.429Z,6.50
2019-06-26T09:38:04.814Z,6.33
2019-06-26T09:40:33.961Z,6.17
2019-06-26T09:43:03.058Z,6.50
2019-06-26T09:45:32.357Z,6.40
2019-06-26T09:48:01.592Z,6.60
2019-06-26T09:50:30.896Z,5.80
2019-06-26T09:53:00.270Z,6.07
2019-06-26T09:55:29.835Z,5.70
2019-06-26T09:57:59.096Z,5.70
2019-06-26T10:00:28.852Z,5.90
2019-06-26T10:02:57.990Z,6.20
2019-06-26T10:05:29.559Z,6.43
2019-06-26T10:07:58.807Z,6.07
2019-06-26T10:10:28.098Z,6.40
2019-06-26T10:12:57.633Z,5.73
2019-06-26T10:15:27.347Z,5.90
2019-06-26T10:17:57.661Z,5.80
2019-06-26T10:20:28.144Z,5.47
2019-06-26T10:22:57.426Z,5.67
2019-06-26T10:25:28.301Z,6.40
2019-06-26T10:27:57.630Z,6.60
2019-06-26T10:30:27.082Z,5.90
2019-06-26T10:32:57.417Z,6.10
2019-06-26T10:35:26.685Z,5.70
2019-06-26T10:37:55.886Z,6.40
2019-06-26T10:40:25.047Z,6.30
2019-06-26T10:42:54.405Z,5.57
2019-06-26T10:45:23.687Z,6.20
2019-06-26T10:47:52.990Z,5.90
2019-06-26T10:50:23.765Z,5.70
2019-06-26T10:52:52.989Z,6.20
2019-06-26T10:55:27.954Z,6.93
2019-06-26T10:57:57.342Z,6.13
2019-06-26T11:00:28.545Z,6.00
2019-06-26T11:03:00.170Z,6.23
2019-06-26T11:05:29.740Z,5.50
2019-06-26T11:08:03.515Z,6.10
2019-06-26T11:10:33.131Z,6.00
2019-06-26T11:13:02.548Z,5.90
2019-06-26T11:15:31.821Z,6.20
2019-06-26T11:18:01.253Z,5.87
2019-06-26T11:20:32.646Z,5.97
2019-06-26T11:23:02.493Z,6.40
2019-06-26T11:25:31.781Z,5.70
2019-06-26T11:28:02.029Z,5.50
2019-06-26T11:30:32.139Z,5.23
2019-06-26T11:33:01.217Z,5.97
2019-06-26T11:35:33.665Z,5.67
2019-06-26T11:38:02.815Z,5.40
2019-06-26T11:40:32.419Z,5.63
2019-06-26T11:43:01.985Z,5.67
2019-06-26T11:45:31.486Z,6.00
2019-06-26T11:48:01.228Z,6.20
2019-06-26T11:50:30.508Z,5.53
2019-06-26T11:52:59.561Z,6.00
2019-06-26T11:55:28.571Z,5.57
2019-06-26T11:57:59.082Z,5.60
2019-06-26T12:00:29.004Z,20.27
2019-06-26T12:03:00.080Z,9.83
2019-06-26T12:05:29.832Z,5.37
2019-06-26T12:07:59.060Z,5.70
2019-06-26T12:10:29.073Z,5.63
2019-06-26T12:13:13.020Z,5.47
2019-06-26T12:15:48.954Z,5.67
2019-06-26T12:18:29.920Z,5.80
2019-06-26T12:24:45.950Z,5.73
2019-06-26T12:30:32.768Z,5.93
2019-06-26T12:56:09.470Z,5.77
2019-06-26T13:01:41.176Z,6.00
2019-06-26T13:05:00.557Z,5.47
2019-06-26T13:07:51.151Z,6.23
2019-06-26T13:14:42.719Z,6.10
2019-06-26T13:18:01.273Z,6.20
2019-06-26T13:20:24.359Z,6.60
2019-06-26T13:23:09.226Z,6.30
2019-06-26T13:25:38.191Z,5.77
2019-06-26T13:28:12.104Z,6.03
2019-06-26T13:30:39.412Z,6.30
2019-06-26T13:33:08.572Z,6.40
2019-06-26T13:42:23.464Z,6.13
2019-06-26T13:44:53.052Z,6.23
2019-06-26T13:47:22.183Z,6.50
2019-06-26T13:49:57.200Z,6.53
2019-06-26T13:53:01.169Z,6.70
2019-06-26T13:55:02.195Z,6.17
2019-06-26T13:57:31.367Z,6.50
2019-06-26T14:00:00.588Z,7.27
2019-06-26T14:02:29.594Z,6.53
2019-06-26T14:04:58.756Z,6.77
2019-06-26T14:07:28.128Z,6.07
2019-06-26T14:09:57.245Z,6.90
2019-06-26T14:12:26.508Z,6.70
2019-06-26T14:14:57.749Z,7.00
2019-06-26T14:17:26.506Z,6.80
2019-06-26T14:19:55.611Z,6.30
2019-06-26T14:22:24.735Z,6.30
2019-06-26T14:24:54.345Z,6.27
2019-06-26T14:27:23.713Z,6.67
2019-06-26T14:29:52.798Z,6.60
2019-06-26T14:32:21.963Z,6.47
2019-06-26T14:34:51.440Z,7.17
2019-06-26T14:37:20.507Z,6.13
2019-06-26T14:39:49.632Z,6.43
2019-06-26T14:42:18.685Z,6.00
2019-06-26T14:44:47.854Z,6.53
2019-06-26T14:47:17.057Z,6.77
2019-06-26T14:49:46.081Z,6.30
2019-06-26T14:52:15.364Z,6.80
2019-06-26T14:54:44.409Z,6.60
2019-06-26T14:57:13.507Z,6.27
2019-06-26T14:59:42.653Z,7.70
2019-06-26T15:02:12.322Z,6.47
2019-06-26T15:04:41.479Z,6.60
2019-06-26T15:07:11.121Z,6.53
2019-06-26T15:09:43.273Z,6.13
2019-06-26T15:12:12.509Z,6.37
2019-06-26T15:14:41.809Z,6.40
2019-06-26T15:17:11.292Z,6.43
2019-06-26T15:19:40.506Z,6.50
2019-06-26T15:25:24.410Z,6.40
2019-06-26T15:27:54.629Z,6.70
2019-06-26T15:30:24.149Z,6.10
2019-06-26T15:32:53.635Z,6.60
2019-06-26T15:35:22.654Z,6.40
2019-06-26T15:37:51.686Z,6.03
2019-06-26T15:40:20.996Z,6.23
2019-06-26T15:42:50.016Z,6.77
2019-06-26T15:45:20.883Z,6.43
2019-06-26T15:47:50.180Z,6.77
2019-06-26T15:50:19.782Z,5.70
2019-06-26T15:52:49.018Z,5.97
2019-06-26T15:55:18.157Z,6.60
2019-06-26T15:57:47.237Z,6.90
2019-06-26T16:00:16.415Z,5.47
2019-06-26T16:02:45.846Z,6.40
2019-06-26T16:05:16.104Z,6.63
2019-06-26T16:07:45.177Z,6.00
2019-06-26T16:10:14.640Z,5.60
2019-06-26T16:12:43.758Z,5.80
2019-06-26T16:15:13.265Z,6.07
2019-06-26T16:18:07.568Z,5.97
2019-06-26T16:20:36.755Z,6.03
2019-06-26T16:23:06.090Z,6.23
2019-06-26T16:25:36.018Z,5.80
2019-06-26T16:28:06.196Z,5.67
2019-06-26T16:30:36.044Z,5.70
2019-06-26T16:33:05.457Z,5.83
2019-06-26T16:35:35.670Z,5.73
2019-06-26T16:38:04.903Z,5.60
2019-06-26T16:40:33.889Z,5.80
2019-06-26T16:43:03.015Z,5.37
2019-06-26T16:45:32.136Z,5.30
2019-06-26T16:48:01.273Z,5.63
2019-06-26T16:50:30.417Z,5.47
2019-06-26T16:52:59.573Z,5.10
2019-06-26T16:55:28.941Z,4.90
2019-06-26T16:57:57.993Z,4.97
2019-06-26T17:00:27.042Z,4.77
2019-06-26T17:02:56.187Z,4.97
2019-06-26T17:05:25.820Z,5.10
2019-06-26T17:07:54.888Z,5.27
2019-06-26T17:10:24.138Z,5.07
2019-06-26T17:12:53.406Z,5.60
2019-06-26T17:15:22.558Z,4.70
2019-06-26T17:17:51.854Z,5.43
2019-06-26T17:20:21.484Z,5.23
2019-06-26T17:23:04.593Z,4.70
2019-06-26T17:25:21.792Z,5.17
2019-06-26T17:27:51.004Z,4.80
2019-06-26T17:30:20.334Z,4.37
2019-06-26T17:32:49.405Z,4.60
2019-06-26T17:35:19.724Z,4.30
2019-06-26T17:37:48.942Z,4.07
2019-06-26T17:40:19.254Z,4.07
2019-06-26T17:42:48.424Z,4.27
2019-06-26T17:45:18.895Z,4.07
2019-06-26T17:47:48.168Z,3.93
2019-06-26T17:50:18.202Z,3.90
2019-06-26T17:52:47.344Z,3.77
2019-06-26T17:55:16.714Z,3.77
2019-06-26T17:57:47.586Z,3.57
2019-06-26T18:00:42.564Z,3.30
2019-06-26T18:07:27.039Z,3.27
2019-06-26T18:27:04.395Z,3.20
2019-06-26T18:29:40.746Z,4.17
2019-06-26T18:32:10.143Z,3.70
2019-06-26T18:34:39.398Z,3.90
2019-06-26T18:37:09.269Z,3.40
2019-06-26T18:39:38.580Z,3.60
2019-06-26T18:42:17.180Z,3.80
2019-06-26T18:44:47.594Z,3.90
2019-06-26T18:47:25.131Z,3.80
2019-06-26T18:49:54.357Z,4.20
2019-06-26T18:52:23.804Z,3.40
2019-06-26T18:54:53.458Z,3.90
2019-06-26T18:57:22.868Z,4.03
2019-06-26T18:59:52.422Z,3.90
2019-06-26T19:02:22.819Z,3.57
2019-06-26T19:04:54.375Z,3.37
2019-06-26T19:07:24.062Z,3.50
2019-06-26T19:13:11.919Z,4.60
2019-06-26T19:15:46.184Z,3.90
2019-06-26T19:18:15.276Z,4.00
2019-06-26T19:21:39.635Z,4.20
2019-06-26T19:24:10.860Z,5.80
2019-06-26T19:26:42.760Z,4.17
2019-06-26T19:29:21.151Z,4.83
2019-06-26T19:31:50.495Z,4.17
2019-06-26T19:34:20.341Z,4.37
2019-06-26T19:36:57.679Z,4.57
2019-06-26T19:39:21.537Z,5.03
2019-06-26T19:41:50.848Z,4.63
2019-06-26T19:44:20.239Z,4.43
2019-06-26T19:46:51.206Z,4.30
2019-06-26T19:53:57.477Z,4.40
2019-06-26T19:56:28.065Z,5.67
2019-06-26T19:59:04.265Z,8.00
2019-06-26T20:01:33.596Z,5.00
2019-06-26T20:04:04.407Z,7.83
2019-06-26T20:06:42.090Z,6.73
2019-06-26T20:09:11.981Z,6.93
2019-06-26T20:11:41.515Z,5.10
2019-06-26T20:14:12.680Z,5.10
2019-06-26T20:16:45.846Z,5.00
2019-06-26T20:19:22.305Z,7.80
2019-06-26T20:22:05.899Z,5.23
2019-06-26T20:24:44.269Z,5.73
2019-06-26T20:27:20.304Z,4.80
2019-06-26T20:32:58.495Z,4.57
2019-06-26T20:35:31.914Z,4.67
2019-06-26T20:38:03.349Z,4.10
2019-06-26T20:40:34.866Z,3.80
2019-06-26T20:43:08.348Z,4.17
2019-06-26T20:45:39.388Z,4.10
2019-06-26T20:48:10.608Z,4.10
2019-06-26T20:50:46.149Z,4.53
2019-06-26T20:53:15.989Z,4.07
2019-06-26T20:55:45.305Z,4.10
2019-06-26T21:15:24.824Z,4.10
2019-06-26T21:18:59.888Z,4.73
2019-06-26T21:21:34.907Z,4.00
2019-06-26T21:24:58.567Z,4.20
2019-06-26T21:27:53.447Z,4.47
2019-06-26T21:30:25.969Z,4.37
2019-06-26T21:32:58.939Z,3.93
2019-06-26T21:50:20.835Z,3.53
2019-06-26T21:53:44.059Z,14.57
2019-06-26T22:02:10.189Z,3.60
2019-06-26T22:04:44.348Z,3.00
2019-06-26T22:07:23.137Z,2.90
2019-06-26T22:09:51.872Z,2.90
2019-06-26T22:12:20.569Z,2.97
2019-06-26T22:14:49.436Z,2.37
2019-06-26T22:17:19.056Z,2.93
2019-06-26T22:19:48.273Z,3.40
2019-06-26T22:22:16.848Z,2.77
2019-06-26T22:24:45.656Z,2.63
2019-06-26T22:27:16.275Z,2.93
2019-06-26T22:29:52.831Z,2.53
2019-06-26T22:32:23.307Z,2.50
2019-06-26T22:34:53.649Z,2.73
2019-06-26T22:37:22.517Z,2.40
2019-06-26T22:39:51.826Z,2.57
2019-06-26T22:42:22.011Z,2.77
2019-06-26T22:44:51.206Z,2.70
2019-06-26T22:47:20.968Z,2.60
2019-06-26T22:49:50.324Z,2.70
2019-06-26T22:52:26.475Z,2.77
2019-06-26T22:54:55.202Z,2.80
2019-06-26T22:57:24.431Z,2.70
2019-06-26T22:59:53.086Z,2.80
2019-06-26T23:02:21.727Z,2.80
2019-06-26T23:04:50.298Z,2.90
2019-06-26T23:07:18.976Z,2.63
2019-06-26T23:09:48.374Z,3.17
2019-06-26T23:12:16.933Z,2.73
2019-06-26T23:14:45.560Z,2.60
2019-06-26T23:17:14.225Z,2.90
2019-06-26T23:19:42.861Z,2.67
2019-06-26T23:22:11.488Z,3.00
2019-06-26T23:24:40.097Z,3.17
2019-06-26T23:27:08.840Z,3.10
2019-06-26T23:29:37.462Z,2.83
2019-06-26T23:32:06.081Z,3.07
2019-06-26T23:34:34.765Z,3.50
2019-06-26T23:37:03.664Z,3.20
2019-06-26T23:39:32.299Z,3.27
2019-06-26T23:42:00.888Z,3.23
2019-06-26T23:44:30.636Z,3.00
2019-06-26T23:46:59.575Z,3.00
2019-06-26T23:49:28.183Z,3.20
2019-06-26T23:51:56.745Z,3.43
2019-06-26T23:54:25.464Z,3.17
2019-06-26T23:56:53.887Z,3.30
2019-06-26T23:59:22.573Z,3.27
